sensor_id;sensor_type;location;lat;lon;timestamp;pressure;altitude;pressure_sealevel;temperature;humidity
20909;BME280;10614;53.198;6.570;2023-02-19T00:00:18;101517.03;;;8.20;100.00
20909;BME280;10614;53.198;6.570;2023-02-19T00:02:19;101508.31;;;8.18;100.00
20909;BME280;10614;53.198;6.570;2023-02-19T00:04:21;101513.56;;;8.20;100.00
20909;BME280;10614;53.198;6.570;2023-02-19T00:06:25;101505.69;;;8.20;100.00
20909;BME280;10614;53.198;6.570;2023-02-19T00:08:28;101513.56;;;8.20;100.00
20909;BME280;10614;53.198;6.570;2023-02-19T00:10:30;101515.28;;;8.21;100.00
20909;BME280;10614;53.198;6.570;2023-02-19T00:12:31;101513.50;;;8.21;100.00
20909;BME280;10614;53.198;6.570;2023-02-19T00:14:34;101520.50;;;8.21;100.00
20909;BME280;10614;53.198;6.570;2023-02-19T00:16:38;101515.31;;;8.19;100.00
20909;BME280;10614;53.198;6.570;2023-02-19T00:18:41;101511.84;;;8.17;100.00
20909;BME280;10614;53.198;6.570;2023-02-19T00:20:42;101517.97;;;8.16;100.00
20909;BME280;10614;53.198;6.570;2023-02-19T00:22:44;101513.59;;;8.17;100.00
20909;BME280;10614;53.198;6.570;2023-02-19T00:24:46;101510.16;;;8.15;100.00
20909;BME280;10614;53.198;6.570;2023-02-19T00:26:48;101514.50;;;8.16;100.00
20909;BME280;10614;53.198;6.570;2023-02-19T00:28:50;101520.66;;;8.15;100.00
20909;BME280;10614;53.198;6.570;2023-02-19T00:30:53;101517.06;;;8.19;100.00
20909;BME280;10614;53.198;6.570;2023-02-19T00:32:55;101517.97;;;8.18;100.00
20909;BME280;10614;53.198;6.570;2023-02-19T00:34:57;101504.91;;;8.15;100.00
20909;BME280;10614;53.198;6.570;2023-02-19T00:36:58;101520.59;;;8.16;100.00
20909;BME280;10614;53.198;6.570;2023-02-19T00:39:00;101503.16;;;8.15;100.00
20909;BME280;10614;53.198;6.570;2023-02-19T00:41:02;101501.38;;;8.16;100.00
20909;BME280;10614;53.198;6.570;2023-02-19T00:43:18;101505.78;;;8.15;100.00
20909;BME280;10614;53.198;6.570;2023-02-19T00:45:20;101504.91;;;8.15;100.00
20909;BME280;10614;53.198;6.570;2023-02-19T00:47:23;101507.53;;;8.15;100.00
20909;BME280;10614;53.198;6.570;2023-02-19T00:49:25;101496.16;;;8.14;100.00
20909;BME280;10614;53.198;6.570;2023-02-19T00:51:29;101507.56;;;8.12;100.00
20909;BME280;10614;53.198;6.570;2023-02-19T00:53:31;101499.72;;;8.12;100.00
20909;BME280;10614;53.198;6.570;2023-02-19T00:55:33;101494.47;;;8.12;100.00
20909;BME280;10614;53.198;6.570;2023-02-19T00:57:34;101500.53;;;8.14;100.00
20909;BME280;10614;53.198;6.570;2023-02-19T00:59:36;101496.22;;;8.13;100.00
20909;BME280;10614;53.198;6.570;2023-02-19T01:01:38;101495.31;;;8.14;100.00
20909;BME280;10614;53.198;6.570;2023-02-19T01:03:41;101497.06;;;8.13;100.00
20909;BME280;10614;53.198;6.570;2023-02-19T01:05:43;101495.31;;;8.12;100.00
20909;BME280;10614;53.198;6.570;2023-02-19T01:07:44;101489.28;;;8.10;100.00
20909;BME280;10614;53.198;6.570;2023-02-19T01:09:46;101493.59;;;8.11;100.00
20909;BME280;10614;53.198;6.570;2023-02-19T01:11:47;101495.31;;;8.12;100.00
20909;BME280;10614;53.198;6.570;2023-02-19T01:13:49;101495.38;;;8.11;100.00
20909;BME280;10614;53.198;6.570;2023-02-19T01:15:51;101494.47;;;8.12;100.00
20909;BME280;10614;53.198;6.570;2023-02-19T01:17:52;101494.47;;;8.12;100.00
20909;BME280;10614;53.198;6.570;2023-02-19T01:19:55;101492.75;;;8.11;100.00
20909;BME280;10614;53.198;6.570;2023-02-19T01:21:57;101491.84;;;8.12;100.00
20909;BME280;10614;53.198;6.570;2023-02-19T01:23:58;101498.84;;;8.11;100.00
20909;BME280;10614;53.198;6.570;2023-02-19T01:26:03;101506.75;;;8.10;100.00
20909;BME280;10614;53.198;6.570;2023-02-19T01:28:05;101494.53;;;8.09;100.00
20909;BME280;10614;53.198;6.570;2023-02-19T01:30:07;101504.94;;;8.12;100.00
20909;BME280;10614;53.198;6.570;2023-02-19T01:32:09;101510.19;;;8.12;100.00
20909;BME280;10614;53.198;6.570;2023-02-19T01:34:11;101511.09;;;8.11;100.00
20909;BME280;10614;53.198;6.570;2023-02-19T01:36:14;101512.88;;;8.10;100.00
20909;BME280;10614;53.198;6.570;2023-02-19T01:38:16;101524.22;;;8.09;100.00
20909;BME280;10614;53.198;6.570;2023-02-19T01:40:18;101531.22;;;8.10;100.00
20909;BME280;10614;53.198;6.570;2023-02-19T01:42:20;101533.88;;;8.07;100.00
20909;BME280;10614;53.198;6.570;2023-02-19T01:45:12;101546.28;;;7.99;100.00
20909;BME280;10614;53.198;6.570;2023-02-19T01:47:18;101543.78;;;7.91;100.00
20909;BME280;10614;53.198;6.570;2023-02-19T01:49:24;101549.16;;;7.85;100.00
20909;BME280;10614;53.198;6.570;2023-02-19T01:51:29;101553.56;;;7.81;100.00
20909;BME280;10614;53.198;6.570;2023-02-19T01:53:35;101551.84;;;7.79;100.00
20909;BME280;10614;53.198;6.570;2023-02-19T01:55:39;101555.38;;;7.78;100.00
20909;BME280;10614;53.198;6.570;2023-02-19T01:57:44;101561.53;;;7.75;100.00
20909;BME280;10614;53.198;6.570;2023-02-19T01:59:48;101563.28;;;7.75;100.00
20909;BME280;10614;53.198;6.570;2023-02-19T02:01:54;101563.34;;;7.72;100.00
20909;BME280;10614;53.198;6.570;2023-02-19T02:03:56;101562.56;;;7.67;100.00
20909;BME280;10614;53.198;6.570;2023-02-19T02:06:01;101564.34;;;7.65;100.00
20909;BME280;10614;53.198;6.570;2023-02-19T02:08:04;101573.13;;;7.60;100.00
20909;BME280;10614;53.198;6.570;2023-02-19T02:10:23;101568.81;;;7.58;100.00
20909;BME280;10614;53.198;6.570;2023-02-19T02:12:25;101570.56;;;7.57;100.00
20909;BME280;10614;53.198;6.570;2023-02-19T02:14:30;101574.09;;;7.56;100.00
20909;BME280;10614;53.198;6.570;2023-02-19T02:16:39;101571.47;;;7.55;100.00
20909;BME280;10614;53.198;6.570;2023-02-19T02:18:53;101569.72;;;7.55;100.00
20909;BME280;10614;53.198;6.570;2023-02-19T02:21:20;101583.69;;;7.56;100.00
20909;BME280;10614;53.198;6.570;2023-02-19T02:23:39;101582.81;;;7.55;100.00
20909;BME280;10614;53.198;6.570;2023-02-19T02:26:05;101582.88;;;7.52;100.00
20909;BME280;10614;53.198;6.570;2023-02-19T02:28:21;101588.97;;;7.51;100.00
20909;BME280;10614;53.198;6.570;2023-02-19T02:30:38;101575.09;;;7.48;100.00
20909;BME280;10614;53.198;6.570;2023-02-19T02:32:46;101587.28;;;7.49;100.00
20909;BME280;10614;53.198;6.570;2023-02-19T02:34:55;101586.47;;;7.45;100.00
20909;BME280;10614;53.198;6.570;2023-02-19T02:36:59;101594.34;;;7.45;100.00
20909;BME280;10614;53.198;6.570;2023-02-19T02:39:02;101595.25;;;7.43;100.00
20909;BME280;10614;53.198;6.570;2023-02-19T02:41:07;101590.88;;;7.42;100.00
20909;BME280;10614;53.198;6.570;2023-02-19T02:43:09;101589.16;;;7.40;100.00
20909;BME280;10614;53.198;6.570;2023-02-19T02:45:28;101588.34;;;7.37;100.00
20909;BME280;10614;53.198;6.570;2023-02-19T02:47:42;101597.16;;;7.33;100.00
20909;BME280;10614;53.198;6.570;2023-02-19T02:49:45;101606.72;;;7.32;100.00
20909;BME280;10614;53.198;6.570;2023-02-19T02:52:04;101611.13;;;7.30;100.00
20909;BME280;10614;53.198;6.570;2023-02-19T02:54:28;101615.56;;;7.27;100.00
20909;BME280;10614;53.198;6.570;2023-02-19T02:56:49;101616.47;;;7.24;100.00
20909;BME280;10614;53.198;6.570;2023-02-19T02:58:52;101617.31;;;7.25;100.00
20909;BME280;10614;53.198;6.570;2023-02-19T03:00:59;101628.69;;;7.24;100.00
20909;BME280;10614;53.198;6.570;2023-02-19T03:03:22;101640.03;;;7.23;100.00
20909;BME280;10614;53.198;6.570;2023-02-19T03:05:26;101654.03;;;7.20;100.00
20909;BME280;10614;53.198;6.570;2023-02-19T03:07:53;101661.03;;;7.19;100.00
20909;BME280;10614;53.198;6.570;2023-02-19T03:09:58;101660.19;;;7.17;100.00
20909;BME280;10614;53.198;6.570;2023-02-19T03:12:02;101661.97;;;7.15;100.00
20909;BME280;10614;53.198;6.570;2023-02-19T03:14:27;101673.28;;;7.16;100.00
20909;BME280;10614;53.198;6.570;2023-02-19T03:16:50;101670.72;;;7.13;100.00
20909;BME280;10614;53.198;6.570;2023-02-19T03:19:14;101673.34;;;7.11;100.00
20909;BME280;10614;53.198;6.570;2023-02-19T03:21:21;101673.34;;;7.11;100.00
20909;BME280;10614;53.198;6.570;2023-02-19T03:23:26;101675.09;;;7.09;100.00
20909;BME280;10614;53.198;6.570;2023-02-19T03:25:45;101682.09;;;7.10;100.00
20909;BME280;10614;53.198;6.570;2023-02-19T03:28:08;101671.63;;;7.09;100.00
20909;BME280;10614;53.198;6.570;2023-02-19T03:30:13;101674.28;;;7.07;100.00
20909;BME280;10614;53.198;6.570;2023-02-19T03:32:16;101683.88;;;7.07;100.00
20909;BME280;10614;53.198;6.570;2023-02-19T03:34:22;101689.16;;;7.04;100.00
20909;BME280;10614;53.198;6.570;2023-02-19T03:36:29;101695.28;;;7.01;100.00
20909;BME280;10614;53.198;6.570;2023-02-19T03:38:37;101699.66;;;7.01;100.00
20909;BME280;10614;53.198;6.570;2023-02-19T03:40:44;101703.16;;;7.00;100.00
20909;BME280;10614;53.198;6.570;2023-02-19T03:42:57;101706.69;;;6.97;100.00
20909;BME280;10614;53.198;6.570;2023-02-19T03:45:08;101711.94;;;6.95;100.00
20909;BME280;10614;53.198;6.570;2023-02-19T03:47:16;101718.06;;;6.94;100.00
20909;BME280;10614;53.198;6.570;2023-02-19T03:49:26;101725.03;;;6.94;100.00
20909;BME280;10614;53.198;6.570;2023-02-19T03:51:34;101735.56;;;6.91;100.00
20909;BME280;10614;53.198;6.570;2023-02-19T03:53:47;101739.91;;;6.90;100.00
20909;BME280;10614;53.198;6.570;2023-02-19T03:56:01;101746.94;;;6.85;100.00
20909;BME280;10614;53.198;6.570;2023-02-19T03:58:07;101751.31;;;6.85;100.00
20909;BME280;10614;53.198;6.570;2023-02-19T04:00:13;101751.34;;;6.79;100.00
20909;BME280;10614;53.198;6.570;2023-02-19T04:02:18;101754.00;;;6.75;100.00
20909;BME280;10614;53.198;6.570;2023-02-19T04:04:27;101750.53;;;6.75;100.00
20909;BME280;10614;53.198;6.570;2023-02-19T04:06:32;101741.81;;;6.73;100.00
20909;BME280;10614;53.198;6.570;2023-02-19T04:08:35;101748.78;;;6.74;100.00
20909;BME280;10614;53.198;6.570;2023-02-19T04:10:40;101747.91;;;6.73;100.00
20909;BME280;10614;53.198;6.570;2023-02-19T04:12:48;101750.53;;;6.75;100.00
20909;BME280;10614;53.198;6.570;2023-02-19T04:14:54;101764.47;;;6.74;100.00
20909;BME280;10614;53.198;6.570;2023-02-19T04:17:01;101768.84;;;6.73;100.00
20909;BME280;10614;53.198;6.570;2023-02-19T04:19:08;101773.22;;;6.73;100.00
20909;BME280;10614;53.198;6.570;2023-02-19T04:21:13;101774.13;;;6.70;100.00
20909;BME280;10614;53.198;6.570;2023-02-19T04:23:19;101782.84;;;6.69;100.00
20909;BME280;10614;53.198;6.570;2023-02-19T04:25:25;101792.44;;;6.69;100.00
20909;BME280;10614;53.198;6.570;2023-02-19T04:27:28;101791.59;;;6.68;100.00
20909;BME280;10614;53.198;6.570;2023-02-19T04:29:29;101795.09;;;6.66;100.00
20909;BME280;10614;53.198;6.570;2023-02-19T04:31:32;101796.88;;;6.59;100.00
20909;BME280;10614;53.198;6.570;2023-02-19T04:33:36;101789.06;;;6.56;100.00
20909;BME280;10614;53.198;6.570;2023-02-19T04:35:37;101803.03;;;6.55;100.00
20909;BME280;10614;53.198;6.570;2023-02-19T04:37:40;101809.16;;;6.54;100.00
20909;BME280;10614;53.198;6.570;2023-02-19T04:39:42;101811.75;;;6.54;100.00
20909;BME280;10614;53.198;6.570;2023-02-19T04:41:44;101817.00;;;6.54;100.00
20909;BME280;10614;53.198;6.570;2023-02-19T04:43:45;101824.84;;;6.54;100.00
20909;BME280;10614;53.198;6.570;2023-02-19T04:45:47;101822.22;;;6.52;100.00
20909;BME280;10614;53.198;6.570;2023-02-19T04:47:49;101830.94;;;6.54;100.00
20909;BME280;10614;53.198;6.570;2023-02-19T04:49:50;101839.69;;;6.53;100.00
20909;BME280;10614;53.198;6.570;2023-02-19T04:51:52;101832.69;;;6.52;100.00
20909;BME280;10614;53.198;6.570;2023-02-19T04:53:55;101839.69;;;6.53;100.00
20909;BME280;10614;53.198;6.570;2023-02-19T04:55:56;101837.94;;;6.51;100.00
20909;BME280;10614;53.198;6.570;2023-02-19T04:57:59;101842.31;;;6.49;100.00
20909;BME280;10614;53.198;6.570;2023-02-19T05:00:00;101844.06;;;6.47;100.00
20909;BME280;10614;53.198;6.570;2023-02-19T05:02:02;101850.16;;;6.47;100.00
20909;BME280;10614;53.198;6.570;2023-02-19T05:04:04;101858.00;;;6.46;100.00
20909;BME280;10614;53.198;6.570;2023-02-19T05:06:07;101861.53;;;6.45;100.00
20909;BME280;10614;53.198;6.570;2023-02-19T05:08:09;101865.88;;;6.43;100.00
20909;BME280;10614;53.198;6.570;2023-02-19T05:10:12;101876.34;;;6.41;100.00
20909;BME280;10614;53.198;6.570;2023-02-19T05:12:13;101882.47;;;6.42;100.00
20909;BME280;10614;53.198;6.570;2023-02-19T05:14:15;101879.84;;;6.40;100.00
20909;BME280;10614;53.198;6.570;2023-02-19T05:16:17;101881.59;;;6.38;100.00
20909;BME280;10614;53.198;6.570;2023-02-19T05:18:19;101891.22;;;6.36;100.00
20909;BME280;10614;53.198;6.570;2023-02-19T05:20:20;101893.84;;;6.34;100.00
20909;BME280;10614;53.198;6.570;2023-02-19T05:22:22;101899.94;;;6.33;100.00
20909;BME280;10614;53.198;6.570;2023-02-19T05:24:24;101903.44;;;6.32;100.00
20909;BME280;10614;53.198;6.570;2023-02-19T05:26:28;101915.66;;;6.30;100.00
20909;BME280;10614;53.198;6.570;2023-02-19T05:28:30;101917.41;;;6.30;100.00
20909;BME280;10614;53.198;6.570;2023-02-19T05:30:31;101918.25;;;6.29;100.00
20909;BME280;10614;53.198;6.570;2023-02-19T05:32:33;101926.13;;;6.26;100.00
20909;BME280;10614;53.198;6.570;2023-02-19T05:34:35;101920.03;;;6.25;100.00
20909;BME280;10614;53.198;6.570;2023-02-19T05:36:38;101922.69;;;6.19;100.00
20909;BME280;10614;53.198;6.570;2023-02-19T05:38:40;101928.78;;;6.20;100.00
20909;BME280;10614;53.198;6.570;2023-02-19T05:40:42;101934.03;;;6.18;100.00
20909;BME280;10614;53.198;6.570;2023-02-19T05:42:45;101936.63;;;6.15;100.00
20909;BME280;10614;53.198;6.570;2023-02-19T05:44:47;101939.25;;;6.15;100.00
20909;BME280;10614;53.198;6.570;2023-02-19T05:46:48;101947.97;;;6.14;100.00
20909;BME280;10614;53.198;6.570;2023-02-19T05:48:51;101947.97;;;6.11;100.00
20909;BME280;10614;53.198;6.570;2023-02-19T05:50:53;101948.88;;;6.11;100.00
20909;BME280;10614;53.198;6.570;2023-02-19T05:52:55;101947.97;;;6.11;100.00
20909;BME280;10614;53.198;6.570;2023-02-19T05:54:56;101948.84;;;6.10;100.00
20909;BME280;10614;53.198;6.570;2023-02-19T05:56:58;101951.47;;;6.10;100.00
20909;BME280;10614;53.198;6.570;2023-02-19T05:59:03;101949.72;;;6.10;100.00
20909;BME280;10614;53.198;6.570;2023-02-19T06:01:13;101959.31;;;6.10;100.00
20909;BME280;10614;53.198;6.570;2023-02-19T06:03:15;101961.06;;;6.09;100.00
20909;BME280;10614;53.198;6.570;2023-02-19T06:05:16;101962.78;;;6.10;100.00
20909;BME280;10614;53.198;6.570;2023-02-19T06:07:18;101971.53;;;6.09;100.00
20909;BME280;10614;53.198;6.570;2023-02-19T06:09:19;101981.13;;;6.09;100.00
20909;BME280;10614;53.198;6.570;2023-02-19T06:11:21;101982.00;;;6.05;100.00
20909;BME280;10614;53.198;6.570;2023-02-19T06:13:23;101987.22;;;6.02;100.00
20909;BME280;10614;53.198;6.570;2023-02-19T06:15:26;101999.41;;;6.03;100.00
20909;BME280;10614;53.198;6.570;2023-02-19T06:17:28;102001.16;;;6.02;100.00
20909;BME280;10614;53.198;6.570;2023-02-19T06:19:29;102003.78;;;6.02;100.00
20909;BME280;10614;53.198;6.570;2023-02-19T06:21:31;102009.00;;;6.02;100.00
20909;BME280;10614;53.198;6.570;2023-02-19T06:23:32;102015.13;;;6.00;100.00
20909;BME280;10614;53.198;6.570;2023-02-19T06:25:34;102032.53;;;5.95;100.00
20909;BME280;10614;53.198;6.570;2023-02-19T06:27:36;102038.59;;;5.93;100.00
20909;BME280;10614;53.198;6.570;2023-02-19T06:29:37;102042.97;;;5.91;100.00
20909;BME280;10614;53.198;6.570;2023-02-19T06:31:40;102042.09;;;5.89;100.00
20909;BME280;10614;53.198;6.570;2023-02-19T06:33:42;102049.94;;;5.89;100.00
20909;BME280;10614;53.198;6.570;2023-02-19T06:35:44;102051.66;;;5.87;100.00
20909;BME280;10614;53.198;6.570;2023-02-19T06:37:46;102059.50;;;5.87;100.00
20909;BME280;10614;53.198;6.570;2023-02-19T06:39:47;102060.38;;;5.86;100.00
20909;BME280;10614;53.198;6.570;2023-02-19T06:41:50;102063.88;;;5.84;100.00
20909;BME280;10614;53.198;6.570;2023-02-19T06:43:52;102070.84;;;5.83;100.00
20909;BME280;10614;53.198;6.570;2023-02-19T06:45:53;102076.94;;;5.82;100.00
20909;BME280;10614;53.198;6.570;2023-02-19T06:47:59;102075.19;;;5.83;100.00
20909;BME280;10614;53.198;6.570;2023-02-19T06:50:00;102082.19;;;5.81;100.00
20909;BME280;10614;53.198;6.570;2023-02-19T06:52:03;102086.50;;;5.80;100.00
20909;BME280;10614;53.198;6.570;2023-02-19T06:54:05;102096.09;;;5.80;100.00
20909;BME280;10614;53.198;6.570;2023-02-19T06:56:21;102098.69;;;5.78;100.00
20909;BME280;10614;53.198;6.570;2023-02-19T06:58:22;102103.06;;;5.78;100.00
20909;BME280;10614;53.198;6.570;2023-02-19T07:00:24;102114.38;;;5.75;100.00
20909;BME280;10614;53.198;6.570;2023-02-19T07:02:26;102116.13;;;5.75;100.00
20909;BME280;10614;53.198;6.570;2023-02-19T07:04:29;102117.00;;;5.75;100.00
20909;BME280;10614;53.198;6.570;2023-02-19T07:06:32;102118.75;;;5.75;100.00
20909;BME280;10614;53.198;6.570;2023-02-19T07:08:34;102116.13;;;5.73;100.00
20909;BME280;10614;53.198;6.570;2023-02-19T07:10:35;102131.81;;;5.73;100.00
20909;BME280;10614;53.198;6.570;2023-02-19T07:12:37;102135.28;;;5.72;100.00
20909;BME280;10614;53.198;6.570;2023-02-19T07:14:39;102138.75;;;5.71;100.00
20909;BME280;10614;53.198;6.570;2023-02-19T07:16:40;102143.13;;;5.70;100.00
20909;BME280;10614;53.198;6.570;2023-02-19T07:18:42;102133.56;;;5.69;100.00
20909;BME280;10614;53.198;6.570;2023-02-19T07:20:45;102138.78;;;5.69;100.00
20909;BME280;10614;53.198;6.570;2023-02-19T07:22:46;102137.03;;;5.70;100.00
20909;BME280;10614;53.198;6.570;2023-02-19T07:24:48;102134.41;;;5.68;100.00
20909;BME280;10614;53.198;6.570;2023-02-19T07:26:50;102122.22;;;5.67;100.00
20909;BME280;10614;53.198;6.570;2023-02-19T07:28:51;102128.31;;;5.68;100.00
20909;BME280;10614;53.198;6.570;2023-02-19T07:30:53;102137.03;;;5.67;100.00
20909;BME280;10614;53.198;6.570;2023-02-19T07:32:55;102119.63;;;5.64;100.00
20909;BME280;10614;53.198;6.570;2023-02-19T07:34:56;102119.63;;;5.64;100.00
20909;BME280;10614;53.198;6.570;2023-02-19T07:36:59;102123.09;;;5.63;100.00
20909;BME280;10614;53.198;6.570;2023-02-19T07:39:01;102118.72;;;5.61;100.00
20909;BME280;10614;53.198;6.570;2023-02-19T07:41:03;102122.22;;;5.61;100.00
20909;BME280;10614;53.198;6.570;2023-02-19T07:43:05;102117.00;;;5.61;100.00
20909;BME280;10614;53.198;6.570;2023-02-19T07:45:07;102127.44;;;5.61;100.00
20909;BME280;10614;53.198;6.570;2023-02-19T07:47:09;102129.19;;;5.61;100.00
20909;BME280;10614;53.198;6.570;2023-02-19T07:49:10;102121.34;;;5.61;100.00
20909;BME280;10614;53.198;6.570;2023-02-19T07:51:14;102117.00;;;5.60;100.00
20909;BME280;10614;53.198;6.570;2023-02-19T07:53:19;102123.94;;;5.59;100.00
20909;BME280;10614;53.198;6.570;2023-02-19T07:55:21;102123.09;;;5.59;100.00
20909;BME280;10614;53.198;6.570;2023-02-19T07:57:23;102132.66;;;5.57;100.00
20909;BME280;10614;53.198;6.570;2023-02-19T07:59:24;102137.00;;;5.55;100.00
20909;BME280;10614;53.198;6.570;2023-02-19T08:01:26;102140.50;;;5.57;100.00
20909;BME280;10614;53.198;6.570;2023-02-19T08:03:42;102146.59;;;5.56;100.00
20909;BME280;10614;53.198;6.570;2023-02-19T08:05:43;102154.44;;;5.56;100.00
20909;BME280;10614;53.198;6.570;2023-02-19T08:07:45;102157.91;;;5.55;100.00
20909;BME280;10614;53.198;6.570;2023-02-19T08:09:48;102155.28;;;5.55;100.00
20909;BME280;10614;53.198;6.570;2023-02-19T08:12:10;102160.50;;;5.55;100.00
20909;BME280;10614;53.198;6.570;2023-02-19T08:14:29;102175.34;;;5.56;100.00
20909;BME280;10614;53.198;6.570;2023-02-19T08:16:31;102176.19;;;5.53;100.00
20909;BME280;10614;53.198;6.570;2023-02-19T08:18:33;102182.28;;;5.54;100.00
20909;BME280;10614;53.198;6.570;2023-02-19T08:20:35;102181.41;;;5.53;100.00
20909;BME280;10614;53.198;6.570;2023-02-19T08:22:36;102191.00;;;5.53;100.00
20909;BME280;10614;53.198;6.570;2023-02-19T08:24:38;102196.22;;;5.53;100.00
20909;BME280;10614;53.198;6.570;2023-02-19T08:26:43;102195.34;;;5.52;100.00
20909;BME280;10614;53.198;6.570;2023-02-19T08:28:45;102192.72;;;5.52;100.00
20909;BME280;10614;53.198;6.570;2023-02-19T08:30:47;102201.44;;;5.53;100.00
20909;BME280;10614;53.198;6.570;2023-02-19T08:32:49;102199.69;;;5.52;100.00
20909;BME280;10614;53.198;6.570;2023-02-19T08:34:50;102206.66;;;5.54;100.00
20909;BME280;10614;53.198;6.570;2023-02-19T08:36:52;102216.25;;;5.54;100.00
20909;BME280;10614;53.198;6.570;2023-02-19T08:38:54;102220.59;;;5.52;100.00
20909;BME280;10614;53.198;6.570;2023-02-19T08:40:56;102222.34;;;5.53;100.00
20909;BME280;10614;53.198;6.570;2023-02-19T08:43:02;102224.06;;;5.54;100.00
20909;BME280;10614;53.198;6.570;2023-02-19T08:45:05;102232.78;;;5.54;100.00
20909;BME280;10614;53.198;6.570;2023-02-19T08:47:06;102236.25;;;5.52;100.00
20909;BME280;10614;53.198;6.570;2023-02-19T08:49:08;102244.97;;;5.54;100.00
20909;BME280;10614;53.198;6.570;2023-02-19T08:51:10;102245.84;;;5.51;100.00
20909;BME280;10614;53.198;6.570;2023-02-19T08:53:12;102245.84;;;5.51;100.00
20909;BME280;10614;53.198;6.570;2023-02-19T08:55:14;102256.28;;;5.51;100.00
20909;BME280;10614;53.198;6.570;2023-02-19T08:57:15;102264.97;;;5.52;100.00
20909;BME280;10614;53.198;6.570;2023-02-19T08:59:19;102275.44;;;5.52;100.00
20909;BME280;10614;53.198;6.570;2023-02-19T09:01:21;102278.03;;;5.47;100.00
20909;BME280;10614;53.198;6.570;2023-02-19T09:03:23;102274.53;;;5.46;100.00
20909;BME280;10614;53.198;6.570;2023-02-19T09:05:25;102291.09;;;5.47;100.00
20909;BME280;10614;53.198;6.570;2023-02-19T09:07:26;102292.81;;;5.46;100.00
20909;BME280;10614;53.198;6.570;2023-02-19T09:09:28;102300.66;;;5.45;100.00
20909;BME280;10614;53.198;6.570;2023-02-19T09:11:29;102310.22;;;5.44;100.00
20909;BME280;10614;53.198;6.570;2023-02-19T09:13:31;102320.69;;;5.46;100.00
20909;BME280;10614;53.198;6.570;2023-02-19T09:15:36;102324.16;;;5.45;100.00
20909;BME280;10614;53.198;6.570;2023-02-19T09:17:38;102313.72;;;5.43;100.00
20909;BME280;10614;53.198;6.570;2023-02-19T09:19:39;102320.66;;;5.41;100.00
20909;BME280;10614;53.198;6.570;2023-02-19T09:21:41;102325.00;;;5.42;100.00
20909;BME280;10614;53.198;6.570;2023-02-19T09:23:43;102325.91;;;5.44;100.00
20909;BME280;10614;53.198;6.570;2023-02-19T09:25:44;102337.22;;;5.45;100.00
20909;BME280;10614;53.198;6.570;2023-02-19T09:27:46;102341.59;;;5.46;100.00
20909;BME280;10614;53.198;6.570;2023-02-19T09:29:48;102350.28;;;5.46;100.00
20909;BME280;10614;53.198;6.570;2023-02-19T09:31:54;102346.81;;;5.49;100.00
20909;BME280;10614;53.198;6.570;2023-02-19T09:33:56;102342.47;;;5.51;100.00
20909;BME280;10614;53.198;6.570;2023-02-19T09:35:58;102345.94;;;5.55;100.00
20909;BME280;10614;53.198;6.570;2023-02-19T09:38:00;102345.13;;;5.59;100.00
20909;BME280;10614;53.198;6.570;2023-02-19T09:40:02;102357.34;;;5.63;100.00
20909;BME280;10614;53.198;6.570;2023-02-19T09:42:11;102366.91;;;5.65;100.00
20909;BME280;10614;53.198;6.570;2023-02-19T09:44:21;102369.56;;;5.67;100.00
20909;BME280;10614;53.198;6.570;2023-02-19T09:46:29;102373.91;;;5.69;100.00
20909;BME280;10614;53.198;6.570;2023-02-19T09:48:33;102370.47;;;5.74;100.00
20909;BME280;10614;53.198;6.570;2023-02-19T09:50:38;102369.56;;;5.78;100.00
20909;BME280;10614;53.198;6.570;2023-02-19T09:52:43;102366.13;;;5.82;100.00
20909;BME280;10614;53.198;6.570;2023-02-19T09:54:46;102367.03;;;5.85;100.00
20909;BME280;10614;53.198;6.570;2023-02-19T09:56:48;102364.41;;;5.85;100.00
20909;BME280;10614;53.198;6.570;2023-02-19T09:58:51;102364.38;;;5.84;100.00
20909;BME280;10614;53.198;6.570;2023-02-19T10:00:56;102363.53;;;5.83;100.00
20909;BME280;10614;53.198;6.570;2023-02-19T10:03:03;102367.88;;;5.84;100.00
20909;BME280;10614;53.198;6.570;2023-02-19T10:05:11;102369.63;;;5.88;100.00
20909;BME280;10614;53.198;6.570;2023-02-19T10:07:14;102371.38;;;5.89;100.00
20909;BME280;10614;53.198;6.570;2023-02-19T10:09:21;102376.63;;;5.92;100.00
20909;BME280;10614;53.198;6.570;2023-02-19T10:11:24;102386.25;;;5.98;100.00
20909;BME280;10614;53.198;6.570;2023-02-19T10:13:29;102389.75;;;5.99;100.00
20909;BME280;10614;53.198;6.570;2023-02-19T10:15:35;102388.00;;;5.96;100.00
20909;BME280;10614;53.198;6.570;2023-02-19T10:17:38;102391.47;;;5.97;100.00
20909;BME280;10614;53.198;6.570;2023-02-19T10:19:40;102392.34;;;5.96;100.00
20909;BME280;10614;53.198;6.570;2023-02-19T10:21:43;102394.09;;;5.98;100.00
20909;BME280;10614;53.198;6.570;2023-02-19T10:23:47;102411.53;;;6.01;100.00
20909;BME280;10614;53.198;6.570;2023-02-19T10:25:52;102415.91;;;6.05;100.00
20909;BME280;10614;53.198;6.570;2023-02-19T10:27:57;102418.53;;;6.05;100.00
20909;BME280;10614;53.198;6.570;2023-02-19T10:29:59;102416.78;;;6.07;100.00
20909;BME280;10614;53.198;6.570;2023-02-19T10:32:12;102415.06;;;6.10;100.00
20909;BME280;10614;53.198;6.570;2023-02-19T10:34:17;102424.69;;;6.16;100.00
20909;BME280;10614;53.198;6.570;2023-02-19T10:36:25;102418.59;;;6.23;100.00
20909;BME280;10614;53.198;6.570;2023-02-19T10:38:30;102410.78;;;6.31;100.00
20909;BME280;10614;53.198;6.570;2023-02-19T10:40:33;102422.09;;;6.36;100.00
20909;BME280;10614;53.198;6.570;2023-02-19T10:42:44;102424.75;;;6.38;100.00
20909;BME280;10614;53.198;6.570;2023-02-19T10:44:48;102434.31;;;6.39;100.00
20909;BME280;10614;53.198;6.570;2023-02-19T10:46:55;102430.84;;;6.38;100.00
20909;BME280;10614;53.198;6.570;2023-02-19T10:48:59;102424.75;;;6.39;100.00
20909;BME280;10614;53.198;6.570;2023-02-19T10:51:05;102428.22;;;6.41;100.00